| time (UTC) | temp F | wind direction | speed knots | gust knots | rain 1hr in | rain 24hr in | rain mn in | humidity % | barometer mb |
| 20260507095601 | 53 | 49 | 0.0 | 0.0 | 0.00 | 0.10 | 0.10 | 93 | 1012.8 |
| 20260507095058 | 53 | 32 | 0.0 | 0.0 | 0.00 | 0.10 | 0.10 | 93 | 1013.0 |
| 20260507094554 | 53 | 33 | 0.0 | 0.0 | 0.00 | 0.10 | 0.10 | 93 | 1013.0 |
| 20260507094051 | 53 | 8 | 0.0 | 0.0 | 0.00 | 0.10 | 0.10 | 93 | 1012.6 |
| 20260507093548 | 53 | 8 | 0.0 | 0.9 | 0.00 | 0.10 | 0.10 | 93 | 1012.7 |
| 20260507093047 | 53 | 32 | 0.0 | 0.0 | 0.00 | 0.10 | 0.10 | 93 | 1013.0 |
| 20260507092543 | 53 | 30 | 0.0 | 0.0 | 0.00 | 0.10 | 0.10 | 93 | 1012.8 |
| 20260507092040 | 53 | 31 | 0.0 | 0.0 | 0.00 | 0.10 | 0.10 | 93 | 1012.9 |
| 20260507091537 | 53 | 0 | 0.0 | 0.0 | 0.00 | 0.10 | 0.10 | 93 | 1013.1 |
| 20260507091033 | 53 | 0 | 0.0 | 0.0 | 0.00 | 0.10 | 0.10 | 93 | 1012.9 |
| 20260507090528 | 53 | 0 | 0.0 | 0.0 | 0.00 | 0.10 | 0.10 | 92 | 1013.0 |
| 20260507090026 | 53 | 0 | 0.0 | 0.0 | 0.00 | 0.10 | 0.10 | 92 | 1012.8 |
| 20260507085523 | 53 | 359 | 0.0 | 0.0 | 0.00 | 0.10 | 0.10 | 92 | 1012.7 |
| 20260507085019 | 53 | 359 | 0.0 | 0.0 | 0.00 | 0.10 | 0.10 | 92 | 1012.4 |
| 20260507084516 | 53 | 1 | 0.0 | 0.0 | 0.00 | 0.10 | 0.10 | 92 | 1012.3 |
| 20260507084013 | 53 | 2 | 0.0 | 0.0 | 0.00 | 0.10 | 0.10 | 92 | 1012.4 |
| 20260507083509 | 53 | 2 | 0.0 | 0.0 | 0.00 | 0.10 | 0.10 | 92 | 1012.6 |
| 20260507083006 | 53 | 2 | 0.0 | 0.0 | 0.00 | 0.10 | 0.10 | 92 | 1012.4 |
| 20260507082502 | 53 | 351 | 0.0 | 0.0 | 0.00 | 0.10 | 0.10 | 91 | 1012.4 |
| 20260507081958 | 53 | 357 | 0.0 | 0.0 | 0.00 | 0.10 | 0.10 | 91 | 1012.0 |
| 20260507081455 | 53 | 15 | 0.0 | 0.0 | 0.00 | 0.10 | 0.10 | 91 | 1012.0 |
| 20260507080952 | 53 | 159 | 0.0 | 0.0 | 0.00 | 0.10 | 0.10 | 91 | 1012.0 |
| 20260507080448 | 53 | 341 | 0.9 | 1.7 | 0.00 | 0.10 | 0.10 | 91 | 1012.1 |
| 20260507075943 | 53 | 3 | 0.0 | 0.0 | 0.00 | 0.10 | 0.10 | 91 | 1011.9 |
| 20260507075440 | 54 | 312 | 1.7 | 1.7 | 0.00 | 0.10 | 0.10 | 92 | 1012.0 |
| 20260507074936 | 54 | 330 | 0.9 | 0.9 | 0.00 | 0.10 | 0.10 | 93 | 1011.8 |
| 20260507074433 | 54 | 124 | 0.0 | 0.0 | 0.00 | 0.10 | 0.10 | 93 | 1011.8 |
| 20260507073931 | 54 | 9 | 0.0 | 0.0 | 0.00 | 0.10 | 0.10 | 93 | 1011.9 |
| 20260507073427 | 54 | 27 | 0.0 | 0.0 | 0.00 | 0.10 | 0.10 | 93 | 1011.6 |
| 20260507072924 | 54 | 4 | 0.0 | 0.0 | 0.00 | 0.10 | 0.10 | 93 | 1012.0 |
| 20260507072422 | 54 | 7 | 0.0 | 0.0 | 0.00 | 0.10 | 0.10 | 94 | 1011.8 |
| 20260507071920 | 54 | 357 | 0.9 | 0.9 | 0.00 | 0.10 | 0.10 | 94 | 1011.6 |
| 20260507071416 | 55 | 334 | 0.0 | 0.0 | 0.00 | 0.10 | 0.10 | 94 | 1011.6 |
| 20260507070912 | 55 | 359 | 0.0 | 0.0 | 0.00 | 0.10 | 0.10 | 94 | 1011.5 |
| 20260507070410 | 55 | 358 | 0.9 | 0.9 | 0.00 | 0.10 | 0.10 | 94 | 1011.7 |
| 20260507065907 | 55 | 340 | 0.0 | 0.9 | 0.00 | 0.10 | 0.10 | 94 | 1011.5 |
| 20260507065403 | 55 | 22 | 1.7 | 2.6 | 0.00 | 0.10 | 0.10 | 94 | 1011.7 |
| 20260507064900 | 55 | 13 | 0.9 | 0.9 | 0.00 | 0.10 | 0.10 | 94 | 1011.9 |
| 20260507064359 | 55 | 1 | 0.0 | 0.0 | 0.00 | 0.10 | 0.10 | 94 | 1011.7 |
| 20260507063856 | 56 | 4 | 0.0 | 0.0 | 0.00 | 0.10 | 0.10 | 94 | 1011.7 |
| 20260507063353 | 56 | 348 | 0.0 | 0.0 | 0.00 | 0.10 | 0.10 | 94 | 1011.9 |
| 20260507062850 | 56 | 347 | 0.0 | 0.0 | 0.00 | 0.10 | 0.10 | 94 | 1011.4 |
| 20260507062347 | 56 | 181 | 0.9 | 0.9 | 0.00 | 0.10 | 0.10 | 94 | 1011.3 |
| 20260507061845 | 56 | 10 | 0.0 | 0.0 | 0.05 | 0.10 | 0.10 | 94 | 1011.5 |
| 20260507061342 | 56 | 356 | 0.0 | 0.0 | 0.05 | 0.10 | 0.10 | 94 | 1011.7 |
| 20260507060841 | 57 | 123 | 0.0 | 0.0 | 0.00 | 0.09 | 0.09 | 93 | 1011.9 |
| 20260507060337 | 57 | 339 | 0.9 | 0.9 | 0.00 | 0.09 | 0.09 | 93 | 1011.4 |
| 20260507055834 | 57 | 41 | 0.0 | 0.0 | 0.00 | 0.09 | 0.09 | 93 | 1011.4 |
| 20260507055329 | 57 | 0 | 0.0 | 0.0 | 0.00 | 0.09 | 0.09 | 93 | 1011.8 |
| 20260507054826 | 57 | 36 | 0.0 | 0.0 | 0.00 | 0.09 | 0.09 | 93 | 1011.7 |
| 20260507054322 | 57 | 327 | 0.0 | 0.9 | 0.00 | 0.09 | 0.09 | 92 | 1011.7 |
| 20260507053819 | 57 | 346 | 0.0 | 0.0 | 0.00 | 0.09 | 0.09 | 92 | 1011.7 |
| 20260507053317 | 57 | 7 | 0.0 | 0.0 | 0.14 | 0.09 | 0.09 | 91 | 1011.9 |
| 20260507052816 | 57 | 351 | 0.0 | 0.9 | 0.42 | 0.09 | 0.09 | 90 | 1011.9 |
| 20260507052312 | 58 | 28 | 0.9 | 1.7 | 0.35 | 0.07 | 0.07 | 88 | 1011.8 |
| 20260507051810 | 59 | 301 | 0.0 | 0.9 | 0.12 | 0.02 | 0.02 | 87 | 1012.0 |
| 20260507051307 | 59 | 301 | 0.9 | 1.7 | 0.05 | 0.01 | 0.01 | 85 | 1012.1 |
| 20260507050804 | 60 | 331 | 0.9 | 0.9 | 0.00 | 0.00 | 0.00 | 83 | 1011.9 |
| 20260507050300 | 60 | 331 | 0.9 | 0.9 | 0.00 | 0.00 | 0.00 | 81 | 1012.1 |
| 20260507045757 | 60 | 342 | 0.0 | 0.0 | 0.00 | 0.23 | 0.23 | 80 | 1012.1 |
| 20260507045253 | 61 | 331 | 0.0 | 0.9 | 0.00 | 0.23 | 0.23 | 79 | 1011.7 |
| 20260507044751 | 61 | 8 | 0.9 | 0.9 | 0.00 | 0.23 | 0.23 | 80 | 1011.7 |
| 20260507044247 | 62 | 2 | 0.9 | 0.9 | 0.00 | 0.23 | 0.23 | 81 | 1011.3 |
| 20260507043743 | 62 | 284 | 0.9 | 0.9 | 0.00 | 0.23 | 0.23 | 80 | 1011.7 |
| 20260507043240 | 62 | 351 | 0.0 | 0.0 | 0.00 | 0.23 | 0.23 | 79 | 1011.4 |
| 20260507042736 | 62 | 342 | 0.0 | 0.0 | 0.00 | 0.23 | 0.23 | 78 | 1011.6 |
| 20260507042231 | 62 | 310 | 0.9 | 0.9 | 0.00 | 0.23 | 0.23 | 79 | 1011.7 |
| 20260507041729 | 62 | 0 | 0.0 | 0.0 | 0.00 | 0.23 | 0.23 | 79 | 1011.4 |
| 20260507041226 | 62 | 344 | 0.9 | 0.9 | 0.00 | 0.23 | 0.23 | 80 | 1011.3 |
| 20260507040723 | 62 | 321 | 0.9 | 0.9 | 0.00 | 0.23 | 0.23 | 80 | 1011.3 |
| 20260507040219 | 62 | 171 | 0.0 | 0.0 | 0.00 | 0.23 | 0.23 | 79 | 1011.1 |
| 20260507035715 | 63 | 3 | 0.0 | 0.0 | 0.00 | 0.23 | 0.23 | 79 | 1010.9 |
| 20260507035211 | 63 | 343 | 0.0 | 0.0 | 0.00 | 0.23 | 0.23 | 78 | 1011.0 |
| 20260507034708 | 63 | 33 | 0.0 | 0.0 | 0.00 | 0.23 | 0.23 | 78 | 1010.8 |
| 20260507034205 | 63 | 306 | 0.0 | 0.0 | 0.00 | 0.23 | 0.23 | 79 | 1011.2 |
| 20260507033704 | 63 | 103 | 0.9 | 0.9 | 0.00 | 0.23 | 0.23 | 78 | 1011.4 |
| 20260507033200 | 63 | 341 | 0.9 | 0.9 | 0.00 | 0.23 | 0.23 | 77 | 1011.3 |
| 20260507032658 | 63 | 318 | 0.0 | 0.0 | 0.00 | 0.23 | 0.23 | 78 | 1011.0 |
| 20260507032153 | 63 | 36 | 0.0 | 0.0 | 0.00 | 0.23 | 0.23 | 78 | 1011.1 |
| 20260507031650 | 64 | 248 | 0.9 | 0.9 | 0.00 | 0.23 | 0.23 | 76 | 1010.9 |
| 20260507031147 | 64 | 314 | 0.0 | 0.9 | 0.00 | 0.23 | 0.23 | 76 | 1011.1 |
| 20260507030644 | 64 | 316 | 1.7 | 1.7 | 0.00 | 0.23 | 0.23 | 75 | 1011.2 |
| 20260507030142 | 64 | 5 | 0.0 | 0.0 | 0.00 | 0.23 | 0.23 | 75 | 1011.0 |
| 20260507025639 | 65 | 348 | 0.9 | 0.9 | 0.00 | 0.23 | 0.23 | 76 | 1010.8 |
| 20260507025136 | 65 | 320 | 0.9 | 0.9 | 0.00 | 0.23 | 0.23 | 76 | 1010.8 |
| 20260507024633 | 65 | 318 | 0.9 | 0.9 | 0.00 | 0.23 | 0.23 | 80 | 1010.8 |
| 20260507024131 | 66 | 342 | 0.9 | 1.7 | 0.00 | 0.23 | 0.23 | 79 | 1010.6 |
| 20260507023626 | 66 | 307 | 0.0 | 0.0 | 0.00 | 0.23 | 0.23 | 80 | 1010.5 |
| 20260507023124 | 66 | 311 | 1.7 | 1.7 | 0.00 | 0.23 | 0.23 | 81 | 1010.6 |
| 20260507022620 | 66 | 21 | 0.0 | 0.0 | 0.00 | 0.23 | 0.23 | 82 | 1010.3 |
| 20260507022116 | 66 | 36 | 0.0 | 0.0 | 0.00 | 0.23 | 0.23 | 82 | 1010.3 |
| 20260507021612 | 66 | 1 | 0.0 | 0.9 | 0.00 | 0.23 | 0.23 | 82 | 1010.2 |
| 20260507021108 | 66 | 311 | 0.9 | 0.9 | 0.00 | 0.23 | 0.23 | 82 | 1010.2 |
| 20260507020607 | 66 | 304 | 0.9 | 0.9 | 0.00 | 0.23 | 0.23 | 83 | 1010.2 |
| 20260507015601 | 66 | 45 | 0.0 | 0.0 | 0.00 | 0.23 | 0.23 | 86 | 1010.5 |
| 20260507015058 | 66 | 45 | 0.0 | 0.0 | 0.00 | 0.23 | 0.23 | 85 | 1010.0 |
| 20260507014555 | 66 | 45 | 0.0 | 0.0 | 0.00 | 0.23 | 0.23 | 85 | 1010.3 |
| 20260507014050 | 66 | 45 | 0.0 | 0.0 | 0.00 | 0.23 | 0.23 | 85 | 1010.6 |
| 20260507013547 | 66 | 45 | 0.0 | 0.0 | 0.00 | 0.23 | 0.23 | 85 | 1010.4 |
| 20260507013044 | 66 | 55 | 0.0 | 0.0 | 0.00 | 0.23 | 0.23 | 85 | 1010.3 |
| 20260507012542 | 66 | 55 | 0.0 | 0.0 | 0.00 | 0.23 | 0.23 | 84 | 1010.6 |
| 20260507012038 | 66 | 52 | 0.0 | 0.0 | 0.00 | 0.23 | 0.23 | 84 | 1010.6 |
| 20260507011536 | 66 | 52 | 0.0 | 0.0 | 0.00 | 0.23 | 0.23 | 84 | 1010.6 |
| 20260507011031 | 66 | 47 | 0.0 | 0.0 | 0.00 | 0.23 | 0.23 | 84 | 1010.5 |
| 20260507010526 | 66 | 47 | 0.0 | 0.0 | 0.00 | 0.23 | 0.23 | 84 | 1010.2 |
| 20260507010023 | 66 | 47 | 0.0 | 0.0 | 0.00 | 0.23 | 0.23 | 84 | 1010.4 |
| 20260507005520 | 66 | 26 | 0.0 | 0.0 | 0.00 | 0.23 | 0.23 | 84 | 1010.4 |
| 20260507005016 | 66 | 30 | 0.0 | 0.0 | 0.00 | 0.23 | 0.23 | 84 | 1010.2 |
| 20260507004513 | 66 | 30 | 0.0 | 0.0 | 0.00 | 0.23 | 0.23 | 83 | 1010.1 |
| 20260507004011 | 66 | 26 | 0.0 | 0.0 | 0.00 | 0.23 | 0.23 | 83 | 1010.2 |
| 20260507003506 | 67 | 27 | 0.0 | 0.0 | 0.00 | 0.23 | 0.23 | 83 | 1009.8 |
| 20260507003001 | 67 | 27 | 0.0 | 0.0 | 0.00 | 0.23 | 0.23 | 83 | 1010.0 |
| 20260507002458 | 67 | 44 | 0.0 | 0.0 | 0.00 | 0.23 | 0.23 | 83 | 1009.9 |
| 20260507001955 | 67 | 73 | 0.0 | 0.0 | 0.00 | 0.23 | 0.23 | 82 | 1009.9 |
| 20260507001451 | 67 | 120 | 0.0 | 0.0 | 0.00 | 0.23 | 0.23 | 82 | 1009.8 |
| 20260507000949 | 67 | 137 | 0.0 | 0.0 | 0.00 | 0.23 | 0.23 | 82 | 1010.0 |
| 20260507000445 | 67 | 203 | 0.9 | 0.9 | 0.00 | 0.23 | 0.23 | 82 | 1010.0 |
| 20260506235940 | 67 | 80 | 0.0 | 0.0 | 0.00 | 0.23 | 0.23 | 82 | 1010.0 |
| 20260506235438 | 67 | 108 | 0.0 | 0.0 | 0.00 | 0.23 | 0.23 | 81 | 1009.6 |
| 20260506234934 | 67 | 122 | 0.0 | 0.0 | 0.00 | 0.23 | 0.23 | 81 | 1009.7 |
| 20260506234432 | 68 | 62 | 0.0 | 0.0 | 0.00 | 0.23 | 0.23 | 81 | 1009.5 |
| 20260506233929 | 68 | 34 | 0.0 | 0.0 | 0.00 | 0.23 | 0.23 | 81 | 1009.7 |
| 20260506233425 | 68 | 203 | 0.0 | 0.0 | 0.00 | 0.23 | 0.23 | 80 | 1009.5 |
| 20260506232922 | 68 | 20 | 0.0 | 0.0 | 0.00 | 0.23 | 0.23 | 80 | 1009.5 |
| 20260506232418 | 68 | 116 | 0.0 | 0.0 | 0.00 | 0.23 | 0.23 | 80 | 1009.4 |
| 20260506231914 | 68 | 285 | 0.0 | 0.0 | 0.00 | 0.23 | 0.23 | 79 | 1009.2 |
| 20260506231412 | 69 | 139 | 0.0 | 0.0 | 0.00 | 0.23 | 0.23 | 80 | 1009.4 |
| 20260506230909 | 69 | 22 | 0.0 | 0.0 | 0.00 | 0.23 | 0.23 | 79 | 1009.5 |
| 20260506230405 | 69 | 104 | 0.0 | 0.9 | 0.00 | 0.23 | 0.23 | 79 | 1009.2 |
| 20260506225902 | 69 | 22 | 0.0 | 0.0 | 0.00 | 0.23 | 0.23 | 79 | 1009.4 |
| 20260506225359 | 69 | 238 | 0.0 | 0.0 | 0.00 | 0.23 | 0.23 | 79 | 1009.4 |
| 20260506224856 | 69 | 236 | 0.9 | 0.9 | 0.00 | 0.23 | 0.23 | 78 | 1009.2 |
| 20260506224354 | 69 | 56 | 0.0 | 0.0 | 0.00 | 0.23 | 0.23 | 78 | 1009.3 |
| 20260506223850 | 69 | 62 | 0.0 | 0.9 | 0.00 | 0.23 | 0.23 | 77 | 1009.3 |
| 20260506223345 | 69 | 129 | 0.0 | 0.0 | 0.00 | 0.23 | 0.23 | 78 | 1009.2 |
| 20260506222842 | 69 | 41 | 0.0 | 0.9 | 0.00 | 0.23 | 0.23 | 78 | 1009.1 |
| 20260506222337 | 70 | 12 | 0.0 | 0.0 | 0.00 | 0.23 | 0.23 | 77 | 1009.3 |
| 20260506221835 | 70 | 36 | 0.9 | 0.9 | 0.00 | 0.23 | 0.23 | 76 | 1009.3 |
| 20260506221332 | 70 | 265 | 0.9 | 0.9 | 0.00 | 0.23 | 0.23 | 76 | 1009.3 |
| 20260506220830 | 70 | 188 | 0.9 | 0.9 | 0.00 | 0.23 | 0.23 | 75 | 1009.3 |
| 20260506220325 | 70 | 308 | 0.0 | 0.0 | 0.00 | 0.23 | 0.23 | 76 | 1009.2 |
| 20260506215822 | 70 | 248 | 0.9 | 0.9 | 0.00 | 0.23 | 0.23 | 75 | 1009.5 |
| 20260506215319 | 70 | 175 | 0.9 | 0.9 | 0.00 | 0.23 | 0.23 | 76 | 1009.3 |
| 20260506214815 | 71 | 205 | 0.9 | 1.7 | 0.00 | 0.23 | 0.23 | 75 | 1009.4 |
| 20260506214311 | 71 | 113 | 0.0 | 0.9 | 0.00 | 0.23 | 0.23 | 75 | 1009.0 |
| 20260506213810 | 71 | 252 | 0.0 | 0.9 | 0.00 | 0.23 | 0.23 | 75 | 1009.2 |
| 20260506213306 | 71 | 27 | 0.0 | 0.0 | 0.00 | 0.23 | 0.23 | 74 | 1009.2 |
| 20260506212804 | 71 | 191 | 0.9 | 1.7 | 0.00 | 0.23 | 0.23 | 74 | 1008.9 |
| 20260506212300 | 71 | 164 | 0.0 | 0.0 | 0.00 | 0.23 | 0.23 | 74 | 1009.0 |
| 20260506211755 | 71 | 142 | 0.0 | 0.0 | 0.00 | 0.23 | 0.23 | 74 | 1009.0 |
| 20260506211251 | 71 | 160 | 0.0 | 0.0 | 0.00 | 0.23 | 0.23 | 74 | 1009.0 |
| 20260506210749 | 71 | 175 | 0.0 | 0.9 | 0.00 | 0.23 | 0.23 | 73 | 1008.9 |
| 20260506210245 | 71 | 326 | 0.0 | 0.9 | 0.00 | 0.23 | 0.23 | 74 | 1009.1 |
| 20260506205742 | 71 | 198 | 0.9 | 0.9 | 0.00 | 0.23 | 0.23 | 74 | 1008.9 |
| 20260506205238 | 71 | 211 | 0.9 | 1.7 | 0.00 | 0.23 | 0.23 | 73 | 1008.9 |
| 20260506204735 | 71 | 168 | 2.6 | 2.6 | 0.00 | 0.23 | 0.23 | 74 | 1008.8 |
| 20260506204233 | 71 | 353 | 0.0 | 0.9 | 0.00 | 0.23 | 0.23 | 75 | 1008.8 |
| 20260506203730 | 70 | 195 | 1.7 | 1.7 | 0.00 | 0.23 | 0.23 | 74 | 1008.9 |
| 20260506203226 | 71 | 24 | 0.9 | 1.7 | 0.00 | 0.23 | 0.23 | 74 | 1008.9 |
| 20260506202724 | 71 | 234 | 0.9 | 1.7 | 0.00 | 0.23 | 0.23 | 74 | 1009.0 |
| 20260506202220 | 71 | 26 | 0.0 | 0.9 | 0.00 | 0.23 | 0.23 | 73 | 1008.8 |
| 20260506201712 | 72 | 340 | 0.0 | 0.0 | 0.00 | 0.23 | 0.23 | 72 | 1008.7 |
| 20260506201208 | 71 | 237 | 0.0 | 0.9 | 0.00 | 0.23 | 0.23 | 73 | 1008.8 |
| 20260506200700 | 71 | 112 | 0.9 | 1.7 | 0.00 | 0.23 | 0.23 | 73 | 1009.0 |
| 20260506200156 | 71 | 174 | 1.7 | 3.5 | 0.00 | 0.23 | 0.23 | 73 | 1008.8 |
| 20260506195653 | 71 | 301 | 0.9 | 0.9 | 0.00 | 0.23 | 0.23 | 73 | 1008.8 |
| 20260506195149 | 71 | 98 | 1.7 | 1.7 | 0.00 | 0.23 | 0.23 | 71 | 1009.0 |
| 20260506194647 | 71 | 59 | 0.0 | 0.0 | 0.00 | 0.23 | 0.23 | 73 | 1008.9 |
| 20260506194143 | 71 | 240 | 0.9 | 0.9 | 0.00 | 0.23 | 0.23 | 74 | 1008.9 |
| 20260506193641 | 71 | 207 | 0.0 | 0.0 | 0.00 | 0.23 | 0.23 | 74 | 1008.9 |
| 20260506193138 | 70 | 101 | 1.7 | 1.7 | 0.00 | 0.23 | 0.23 | 74 | 1008.8 |
| 20260506192635 | 71 | 183 | 0.9 | 1.7 | 0.00 | 0.23 | 0.23 | 73 | 1009.0 |
| 20260506192131 | 71 | 234 | 0.9 | 0.9 | 0.00 | 0.23 | 0.23 | 73 | 1008.9 |
| 20260506191628 | 71 | 95 | 0.0 | 0.0 | 0.00 | 0.23 | 0.23 | 75 | 1009.3 |
| 20260506191124 | 71 | 193 | 0.0 | 0.9 | 0.00 | 0.23 | 0.23 | 76 | 1009.0 |
| 20260506190621 | 70 | 266 | 1.7 | 2.6 | 0.00 | 0.23 | 0.23 | 75 | 1009.2 |
| 20260506190117 | 70 | 315 | 0.9 | 0.9 | 0.00 | 0.23 | 0.23 | 76 | 1009.3 |
| 20260506185614 | 69 | 117 | 0.9 | 0.9 | 0.00 | 0.23 | 0.23 | 77 | 1009.2 |
| 20260506185110 | 69 | 323 | 1.7 | 1.7 | 0.00 | 0.23 | 0.23 | 77 | 1009.5 |
| 20260506184608 | 69 | 81 | 2.6 | 3.5 | 0.00 | 0.23 | 0.23 | 77 | 1009.5 |
| 20260506184105 | 69 | 309 | 1.7 | 2.6 | 0.00 | 0.23 | 0.23 | 76 | 1009.6 |
| 20260506183601 | 69 | 293 | 0.9 | 0.9 | 0.00 | 0.23 | 0.23 | 78 | 1009.5 |
| 20260506183057 | 69 | 289 | 0.9 | 1.7 | 0.00 | 0.23 | 0.23 | 77 | 1009.3 |
| 20260506182556 | 68 | 238 | 1.7 | 1.7 | 0.00 | 0.23 | 0.23 | 78 | 1009.6 |
| 20260506182052 | 68 | 246 | 0.9 | 1.7 | 0.00 | 0.23 | 0.23 | 79 | 1009.5 |
| 20260506181550 | 68 | 220 | 0.9 | 0.9 | 0.00 | 0.23 | 0.23 | 79 | 1009.7 |
| 20260506181046 | 68 | 202 | 1.7 | 2.6 | 0.00 | 0.23 | 0.23 | 81 | 1009.6 |
| 20260506180543 | 67 | 300 | 1.7 | 1.7 | 0.00 | 0.23 | 0.23 | 81 | 1009.8 |
| 20260506180040 | 67 | 241 | 2.6 | 2.6 | 0.00 | 0.23 | 0.23 | 80 | 1009.9 |
| 20260506175536 | 67 | 238 | 1.7 | 1.7 | 0.00 | 0.23 | 0.23 | 82 | 1009.9 |
| 20260506175033 | 67 | 261 | 0.0 | 0.0 | 0.00 | 0.23 | 0.23 | 83 | 1009.8 |
| 20260506174532 | 67 | 302 | 2.6 | 3.5 | 0.00 | 0.23 | 0.23 | 82 | 1009.7 |
| 20260506174027 | 66 | 251 | 1.7 | 1.7 | 0.00 | 0.23 | 0.23 | 82 | 1009.8 |
| 20260506173525 | 66 | 269 | 1.7 | 1.7 | 0.00 | 0.23 | 0.23 | 83 | 1009.7 |
| 20260506173022 | 66 | 326 | 1.7 | 1.7 | 0.00 | 0.23 | 0.23 | 84 | 1010.0 |
| 20260506172519 | 66 | 11 | 0.0 | 0.0 | 0.00 | 0.23 | 0.23 | 85 | 1010.0 |
| 20260506172015 | 65 | 225 | 0.9 | 0.9 | 0.00 | 0.23 | 0.23 | 87 | 1010.1 |
| 20260506171513 | 65 | 315 | 0.0 | 0.9 | 0.00 | 0.23 | 0.23 | 87 | 1009.9 |
| 20260506171010 | 65 | 351 | 0.9 | 0.9 | 0.00 | 0.23 | 0.23 | 87 | 1009.9 |
| 20260506170507 | 65 | 192 | 0.0 | 0.9 | 0.00 | 0.23 | 0.23 | 88 | 1010.0 |
| 20260506170000 | 65 | 255 | 0.9 | 0.9 | 0.00 | 0.23 | 0.23 | 89 | 1010.0 |
| 20260506165458 | 64 | 289 | 0.9 | 1.7 | 0.00 | 0.23 | 0.23 | 90 | 1010.0 |
| 20260506164954 | 64 | 315 | 0.9 | 0.9 | 0.00 | 0.23 | 0.23 | 90 | 1010.2 |
| 20260506164450 | 63 | 259 | 1.7 | 2.6 | 0.00 | 0.23 | 0.23 | 91 | 1010.0 |
| 20260506163943 | 63 | 146 | 1.7 | 1.7 | 0.00 | 0.23 | 0.23 | 91 | 1010.2 |
| 20260506163438 | 63 | 184 | 1.7 | 1.7 | 0.00 | 0.23 | 0.23 | 92 | 1010.2 |
| 20260506162932 | 63 | 319 | 0.0 | 0.0 | 0.00 | 0.23 | 0.23 | 92 | 1010.2 |
| 20260506162430 | 63 | 340 | 0.9 | 0.9 | 0.00 | 0.23 | 0.23 | 92 | 1010.0 |
| 20260506161922 | 63 | 206 | 0.9 | 1.7 | 0.00 | 0.23 | 0.23 | 92 | 1010.2 |
| 20260506161420 | 63 | 18 | 0.0 | 0.0 | 0.00 | 0.23 | 0.23 | 92 | 1010.2 |
| 20260506160917 | 63 | 206 | 0.0 | 0.9 | 0.00 | 0.23 | 0.23 | 92 | 1010.2 |
| 20260506160414 | 63 | 22 | 1.7 | 3.5 | 0.00 | 0.23 | 0.23 | 92 | 1010.3 |
| 20260506155912 | 62 | 322 | 0.9 | 1.7 | 0.00 | 0.23 | 0.23 | 93 | 1010.3 |
| 20260506155408 | 62 | 94 | 0.9 | 0.9 | 0.00 | 0.23 | 0.23 | 93 | 1010.6 |
| 20260506153525 | 62 | 297 | 1.7 | 2.6 | 0.12 | 0.23 | 0.23 | 93 | 1010.2 |
| 20260506153022 | 62 | 181 | 0.0 | 0.0 | 0.05 | 0.22 | 0.22 | 93 | 1010.2 |
| 20260506152519 | 62 | 182 | 0.9 | 1.7 | 0.00 | 0.21 | 0.21 | 93 | 1010.5 |
| 20260506152017 | 62 | 116 | 0.0 | 0.9 | 0.00 | 0.21 | 0.21 | 93 | 1010.8 |
| 20260506151515 | 62 | 261 | 0.0 | 0.0 | 0.00 | 0.21 | 0.21 | 93 | 1010.8 |
| 20260506151012 | 61 | 201 | 0.9 | 0.9 | 0.00 | 0.21 | 0.21 | 93 | 1010.9 |
| 20260506150508 | 62 | 175 | 2.6 | 2.6 | 0.00 | 0.21 | 0.21 | 93 | 1011.1 |
| 20260506150005 | 61 | 121 | 0.9 | 1.7 | 0.07 | 0.21 | 0.21 | 93 | 1011.3 |
| 20260506145501 | 61 | 124 | 0.0 | 0.0 | 0.14 | 0.21 | 0.21 | 93 | 1011.3 |
| 20260506144959 | 61 | 162 | 0.0 | 0.9 | 0.12 | 0.20 | 0.20 | 93 | 1011.1 |
| 20260506144455 | 61 | 164 | 0.0 | 0.0 | 0.24 | 0.19 | 0.19 | 92 | 1011.3 |
| 20260506143953 | 61 | 163 | 0.9 | 0.9 | 0.24 | 0.18 | 0.18 | 92 | 1011.3 |
| 20260506143450 | 61 | 212 | 3.5 | 6.1 | 0.19 | 0.16 | 0.16 | 92 | 1011.2 |
| 20260506142949 | 61 | 82 | 0.0 | 0.0 | 0.12 | 0.14 | 0.14 | 92 | 1011.1 |
| 20260506142446 | 61 | 339 | 0.9 | 0.9 | 0.12 | 0.13 | 0.13 | 92 | 1011.2 |
| 20260506141944 | 61 | 147 | 0.0 | 0.9 | 0.07 | 0.12 | 0.12 | 91 | 1011.1 |
| 20260506141442 | 61 | 220 | 0.0 | 0.0 | 0.19 | 0.12 | 0.12 | 91 | 1011.2 |
| 20260506140940 | 61 | 32 | 0.9 | 0.9 | 0.17 | 0.11 | 0.11 | 91 | 1011.2 |
| 20260506140436 | 62 | 208 | 0.0 | 0.9 | 0.19 | 0.10 | 0.10 | 90 | 1011.4 |
| 20260506135933 | 62 | 173 | 0.0 | 0.0 | 0.14 | 0.08 | 0.08 | 90 | 1011.3 |
| 20260506135431 | 62 | 150 | 0.0 | 0.0 | 0.12 | 0.07 | 0.07 | 89 | 1011.3 |
| 20260506134927 | 62 | 55 | 0.0 | 0.0 | 0.12 | 0.06 | 0.06 | 89 | 1011.6 |
| 20260506134423 | 62 | 170 | 0.0 | 0.0 | 0.19 | 0.05 | 0.05 | 88 | 1011.7 |
| 20260506133920 | 62 | 59 | 0.0 | 0.0 | 0.12 | 0.04 | 0.04 | 88 | 1011.8 |
| 20260506133417 | 62 | 154 | 0.9 | 0.9 | 0.00 | 0.02 | 0.02 | 87 | 1012.1 |
| 20260506132913 | 63 | 128 | 0.0 | 0.0 | 0.05 | 0.02 | 0.02 | 86 | 1011.7 |
| 20260506132411 | 63 | 281 | 0.0 | 0.9 | 0.05 | 0.02 | 0.02 | 86 | 1011.4 |
| 20260506131909 | 63 | 292 | 0.0 | 0.0 | 0.07 | 0.01 | 0.01 | 85 | 1011.5 |
| 20260506131404 | 63 | 350 | 0.9 | 0.9 | 0.07 | 0.01 | 0.01 | 82 | 1011.3 |
| 20260506130902 | 64 | 225 | 0.0 | 0.0 | 0.00 | 0.00 | 0.00 | 81 | 1011.4 |
| 20260506130358 | 64 | 168 | 0.9 | 0.9 | 0.00 | 0.00 | 0.00 | 81 | 1011.1 |
| 20260506125856 | 64 | 164 | 0.9 | 1.7 | 0.00 | 0.00 | 0.00 | 80 | 1010.9 |
| 20260506125354 | 64 | 187 | 0.9 | 0.9 | 0.00 | 0.00 | 0.00 | 80 | 1010.9 |
| 20260506124852 | 64 | 90 | 1.7 | 1.7 | 0.00 | 0.00 | 0.00 | 79 | 1010.9 |
| 20260506124349 | 64 | 193 | 0.0 | 0.9 | 0.00 | 0.00 | 0.00 | 79 | 1010.9 |
| 20260506123847 | 65 | 208 | 0.0 | 0.9 | 0.00 | 0.00 | 0.00 | 78 | 1011.1 |
| 20260506123345 | 65 | 147 | 0.0 | 0.9 | 0.00 | 0.00 | 0.00 | 76 | 1011.2 |
| 20260506122842 | 65 | 171 | 0.9 | 0.9 | 0.00 | 0.00 | 0.00 | 77 | 1011.4 |
| 20260506122338 | 65 | 149 | 0.9 | 0.9 | 0.00 | 0.00 | 0.00 | 76 | 1011.3 |
| 20260506121837 | 65 | 109 | 0.0 | 0.9 | 0.00 | 0.00 | 0.00 | 76 | 1011.6 |
| 20260506121333 | 65 | 80 | 0.0 | 0.0 | 0.00 | 0.00 | 0.00 | 77 | 1011.4 |
| 20260506120831 | 65 | 30 | 0.9 | 0.9 | 0.00 | 0.00 | 0.00 | 75 | 1011.3 |
| 20260506120328 | 65 | 207 | 0.9 | 1.7 | 0.00 | 0.00 | 0.00 | 75 | 1011.5 |
| 20260506115826 | 65 | 302 | 0.0 | 0.0 | 0.00 | 0.00 | 0.00 | 74 | 1011.4 |
| 20260506115324 | 65 | 79 | 0.9 | 0.9 | 0.00 | 0.00 | 0.00 | 72 | 1011.5 |
| 20260506114821 | 65 | 222 | 0.0 | 0.9 | 0.00 | 0.00 | 0.00 | 72 | 1011.3 |
| 20260506114319 | 65 | 237 | 0.9 | 1.7 | 0.00 | 0.00 | 0.00 | 73 | 1011.4 |
| 20260506113817 | 66 | 176 | 0.0 | 0.0 | 0.00 | 0.00 | 0.00 | 72 | 1011.1 |
| 20260506113315 | 66 | 165 | 2.6 | 2.6 | 0.00 | 0.00 | 0.00 | 72 | 1011.1 |
| 20260506112811 | 66 | 183 | 0.9 | 1.7 | 0.00 | 0.00 | 0.00 | 72 | 1011.0 |
| 20260506112308 | 66 | 187 | 0.9 | 1.7 | 0.00 | 0.00 | 0.00 | 72 | 1011.0 |
| 20260506111806 | 66 | 343 | 1.7 | 1.7 | 0.00 | 0.00 | 0.00 | 72 | 1010.9 |
| 20260506111304 | 66 | 107 | 0.0 | 0.0 | 0.00 | 0.00 | 0.00 | 73 | 1010.9 |
| 20260506110801 | 65 | 221 | 0.0 | 0.9 | 0.00 | 0.00 | 0.00 | 73 | 1010.6 |
| 20260506110258 | 65 | 252 | 0.9 | 0.9 | 0.00 | 0.00 | 0.00 | 73 | 1010.6 |
| 20260506105754 | 65 | 226 | 0.9 | 1.7 | 0.00 | 0.00 | 0.00 | 73 | 1010.6 |
| 20260506105251 | 65 | 137 | 0.9 | 0.9 | 0.00 | 0.00 | 0.00 | 73 | 1010.6 |
| 20260506104749 | 65 | 186 | 0.0 | 0.9 | 0.00 | 0.00 | 0.00 | 73 | 1010.7 |
| 20260506104247 | 65 | 240 | 0.9 | 0.9 | 0.00 | 0.00 | 0.00 | 72 | 1010.6 |
| 20260506103744 | 65 | 37 | 0.0 | 0.9 | 0.00 | 0.00 | 0.00 | 73 | 1010.6 |
| 20260506103241 | 65 | 98 | 0.9 | 0.9 | 0.00 | 0.00 | 0.00 | 73 | 1010.4 |
| 20260506102738 | 65 | 176 | 1.7 | 2.6 | 0.00 | 0.00 | 0.00 | 72 | 1010.6 |
| 20260506102236 | 65 | 124 | 0.0 | 0.9 | 0.00 | 0.00 | 0.00 | 73 | 1010.4 |
| 20260506101733 | 65 | 2 | 0.0 | 0.0 | 0.00 | 0.00 | 0.00 | 72 | 1010.8 |
| 20260506101229 | 65 | 237 | 0.0 | 0.9 | 0.00 | 0.00 | 0.00 | 72 | 1010.4 |
| 20260506100728 | 65 | 147 | 1.7 | 2.6 | 0.00 | 0.00 | 0.00 | 72 | 1010.3 |
| 20260506100226 | 65 | 170 | 1.7 | 2.6 | 0.00 | 0.00 | 0.00 | 72 | 1010.3 |
| 20260506095724 | 65 | 159 | 1.7 | 2.6 | 0.00 | 0.00 | 0.00 | 72 | 1010.5 |